sensor_id;sensor_type;location;lat;lon;timestamp;P1;durP1;ratioP1;P2;durP2;ratioP2
7475;SDS011;3779;49.216;8.650;2023-02-01T00:01:43;2.67;;;2.43;;
7475;SDS011;3779;49.216;8.650;2023-02-01T00:04:31;3.07;;;2.67;;
7475;SDS011;3779;49.216;8.650;2023-02-01T00:07:27;3.53;;;2.50;;
7475;SDS011;3779;49.216;8.650;2023-02-01T00:10:27;2.60;;;2.40;;
7475;SDS011;3779;49.216;8.650;2023-02-01T00:13:13;3.97;;;2.90;;
7475;SDS011;3779;49.216;8.650;2023-02-01T00:18:56;2.43;;;2.23;;
7475;SDS011;3779;49.216;8.650;2023-02-01T00:21:54;2.60;;;2.27;;
7475;SDS011;3779;49.216;8.650;2023-02-01T00:24:40;2.60;;;2.40;;
7475;SDS011;3779;49.216;8.650;2023-02-01T00:27:26;2.43;;;2.03;;
7475;SDS011;3779;49.216;8.650;2023-02-01T00:30:12;2.23;;;2.03;;
7475;SDS011;3779;49.216;8.650;2023-02-01T00:32:58;3.30;;;2.30;;
7475;SDS011;3779;49.216;8.650;2023-02-01T00:35:47;2.50;;;2.30;;
7475;SDS011;3779;49.216;8.650;2023-02-01T00:38:36;2.50;;;2.30;;
7475;SDS011;3779;49.216;8.650;2023-02-01T00:41:23;2.33;;;2.13;;
7475;SDS011;3779;49.216;8.650;2023-02-01T00:44:09;2.60;;;2.40;;
7475;SDS011;3779;49.216;8.650;2023-02-01T00:46:59;2.50;;;2.27;;
7475;SDS011;3779;49.216;8.650;2023-02-01T00:49:48;2.43;;;2.23;;
7475;SDS011;3779;49.216;8.650;2023-02-01T00:52:33;2.50;;;2.30;;
7475;SDS011;3779;49.216;8.650;2023-02-01T00:55:19;2.97;;;2.17;;
7475;SDS011;3779;49.216;8.650;2023-02-01T00:58:07;2.53;;;2.23;;
7475;SDS011;3779;49.216;8.650;2023-02-01T01:04:14;2.37;;;2.13;;
7475;SDS011;3779;49.216;8.650;2023-02-01T01:07:01;2.80;;;2.13;;
7475;SDS011;3779;49.216;8.650;2023-02-01T01:09:47;2.63;;;2.10;;
7475;SDS011;3779;49.216;8.650;2023-02-01T01:12:33;2.70;;;2.50;;
7475;SDS011;3779;49.216;8.650;2023-02-01T01:15:21;2.53;;;2.30;;
7475;SDS011;3779;49.216;8.650;2023-02-01T01:18:07;2.97;;;2.40;;
7475;SDS011;3779;49.216;8.650;2023-02-01T01:20:53;3.53;;;2.93;;
7475;SDS011;3779;49.216;8.650;2023-02-01T01:23:45;2.80;;;2.50;;
7475;SDS011;3779;49.216;8.650;2023-02-01T01:26:39;2.77;;;2.53;;
7475;SDS011;3779;49.216;8.650;2023-02-01T01:29:26;3.20;;;2.43;;
7475;SDS011;3779;49.216;8.650;2023-02-01T01:32:12;3.00;;;2.30;;
7475;SDS011;3779;49.216;8.650;2023-02-01T01:35:02;2.73;;;2.40;;
7475;SDS011;3779;49.216;8.650;2023-02-01T01:37:48;4.53;;;2.20;;
7475;SDS011;3779;49.216;8.650;2023-02-01T01:40:35;2.70;;;2.50;;
7475;SDS011;3779;49.216;8.650;2023-02-01T01:43:20;2.90;;;2.60;;
7475;SDS011;3779;49.216;8.650;2023-02-01T01:46:15;3.13;;;2.83;;
7475;SDS011;3779;49.216;8.650;2023-02-01T01:52:10;2.77;;;2.20;;
7475;SDS011;3779;49.216;8.650;2023-02-01T01:54:57;2.83;;;2.53;;
7475;SDS011;3779;49.216;8.650;2023-02-01T01:57:46;2.80;;;2.33;;
7475;SDS011;3779;49.216;8.650;2023-02-01T02:00:38;3.10;;;2.73;;
7475;SDS011;3779;49.216;8.650;2023-02-01T02:03:25;3.03;;;2.40;;
7475;SDS011;3779;49.216;8.650;2023-02-01T02:06:27;3.20;;;2.53;;
7475;SDS011;3779;49.216;8.650;2023-02-01T02:09:23;3.63;;;2.50;;
7475;SDS011;3779;49.216;8.650;2023-02-01T02:12:09;2.60;;;2.33;;
7475;SDS011;3779;49.216;8.650;2023-02-01T02:14:55;2.73;;;2.40;;
7475;SDS011;3779;49.216;8.650;2023-02-01T02:40:29;2.90;;;2.17;;
7475;SDS011;3779;49.216;8.650;2023-02-01T02:43:41;2.57;;;2.37;;
7475;SDS011;3779;49.216;8.650;2023-02-01T02:46:52;1.97;;;1.77;;
7475;SDS011;3779;49.216;8.650;2023-02-01T02:50:08;3.57;;;1.93;;
7475;SDS011;3779;49.216;8.650;2023-02-01T02:53:21;2.50;;;2.30;;
7475;SDS011;3779;49.216;8.650;2023-02-01T02:56:32;2.40;;;1.97;;
7475;SDS011;3779;49.216;8.650;2023-02-01T02:59:39;2.80;;;2.60;;
7475;SDS011;3779;49.216;8.650;2023-02-01T03:02:50;3.07;;;2.23;;
7475;SDS011;3779;49.216;8.650;2023-02-01T03:05:56;2.27;;;2.07;;
7475;SDS011;3779;49.216;8.650;2023-02-01T03:08:43;3.60;;;2.00;;
7475;SDS011;3779;49.216;8.650;2023-02-01T03:11:31;2.30;;;2.10;;
7475;SDS011;3779;49.216;8.650;2023-02-01T03:14:37;2.50;;;2.20;;
7475;SDS011;3779;49.216;8.650;2023-02-01T03:17:30;2.53;;;2.23;;
7475;SDS011;3779;49.216;8.650;2023-02-01T03:20:21;2.30;;;2.10;;
7475;SDS011;3779;49.216;8.650;2023-02-01T03:23:10;2.23;;;2.03;;
7475;SDS011;3779;49.216;8.650;2023-02-01T03:26:06;2.50;;;2.30;;
7475;SDS011;3779;49.216;8.650;2023-02-01T03:29:01;2.13;;;1.93;;
7475;SDS011;3779;49.216;8.650;2023-02-01T03:32:16;2.20;;;2.00;;
7475;SDS011;3779;49.216;8.650;2023-02-01T03:35:14;3.07;;;2.10;;
7475;SDS011;3779;49.216;8.650;2023-02-01T03:38:45;2.93;;;2.10;;
7475;SDS011;3779;49.216;8.650;2023-02-01T03:41:37;2.60;;;2.27;;
7475;SDS011;3779;49.216;8.650;2023-02-01T03:47:33;2.57;;;2.30;;
7475;SDS011;3779;49.216;8.650;2023-02-01T03:50:24;2.37;;;1.90;;
7475;SDS011;3779;49.216;8.650;2023-02-01T03:53:13;2.83;;;1.90;;
7475;SDS011;3779;49.216;8.650;2023-02-01T03:56:07;2.37;;;2.00;;
7475;SDS011;3779;49.216;8.650;2023-02-01T03:58:58;2.43;;;2.10;;
7475;SDS011;3779;49.216;8.650;2023-02-01T04:01:51;2.00;;;1.80;;
7475;SDS011;3779;49.216;8.650;2023-02-01T04:04:45;2.67;;;2.00;;
7475;SDS011;3779;49.216;8.650;2023-02-01T04:07:39;2.43;;;2.23;;
7475;SDS011;3779;49.216;8.650;2023-02-01T04:10:29;2.30;;;2.10;;
7475;SDS011;3779;49.216;8.650;2023-02-01T04:13:16;2.10;;;1.90;;
7475;SDS011;3779;49.216;8.650;2023-02-01T04:16:02;2.23;;;2.00;;
7475;SDS011;3779;49.216;8.650;2023-02-01T04:18:48;2.80;;;2.00;;
7475;SDS011;3779;49.216;8.650;2023-02-01T04:21:35;2.57;;;2.10;;
7475;SDS011;3779;49.216;8.650;2023-02-01T04:24:23;3.83;;;2.63;;
7475;SDS011;3779;49.216;8.650;2023-02-01T04:27:10;2.93;;;1.97;;
7475;SDS011;3779;49.216;8.650;2023-02-01T04:29:56;3.37;;;2.53;;
7475;SDS011;3779;49.216;8.650;2023-02-01T04:32:42;2.33;;;1.93;;
7475;SDS011;3779;49.216;8.650;2023-02-01T04:35:29;3.73;;;2.33;;
7475;SDS011;3779;49.216;8.650;2023-02-01T04:38:16;3.27;;;1.90;;
7475;SDS011;3779;49.216;8.650;2023-02-01T04:41:09;2.63;;;2.00;;
7475;SDS011;3779;49.216;8.650;2023-02-01T04:44:07;2.40;;;2.00;;
7475;SDS011;3779;49.216;8.650;2023-02-01T04:47:02;2.17;;;1.90;;
7475;SDS011;3779;49.216;8.650;2023-02-01T04:49:49;2.57;;;2.20;;
7475;SDS011;3779;49.216;8.650;2023-02-01T04:52:38;3.30;;;2.00;;
7475;SDS011;3779;49.216;8.650;2023-02-01T04:55:27;2.50;;;1.93;;
7475;SDS011;3779;49.216;8.650;2023-02-01T04:58:19;2.10;;;2.00;;
7475;SDS011;3779;49.216;8.650;2023-02-01T05:01:06;2.00;;;1.80;;
7475;SDS011;3779;49.216;8.650;2023-02-01T05:03:58;2.10;;;1.90;;
7475;SDS011;3779;49.216;8.650;2023-02-01T05:06:47;3.53;;;2.10;;
7475;SDS011;3779;49.216;8.650;2023-02-01T05:09:35;1.60;;;1.50;;
7475;SDS011;3779;49.216;8.650;2023-02-01T05:12:21;1.97;;;1.70;;
7475;SDS011;3779;49.216;8.650;2023-02-01T05:15:31;2.10;;;1.93;;
7475;SDS011;3779;49.216;8.650;2023-02-01T05:18:17;1.70;;;1.60;;
7475;SDS011;3779;49.216;8.650;2023-02-01T05:21:09;2.20;;;2.00;;
7475;SDS011;3779;49.216;8.650;2023-02-01T05:23:55;4.03;;;2.27;;
7475;SDS011;3779;49.216;8.650;2023-02-01T05:27:04;3.73;;;2.20;;
7475;SDS011;3779;49.216;8.650;2023-02-01T05:29:50;2.30;;;1.93;;
7475;SDS011;3779;49.216;8.650;2023-02-01T05:32:39;2.57;;;2.00;;
7475;SDS011;3779;49.216;8.650;2023-02-01T05:35:28;4.03;;;2.47;;
7475;SDS011;3779;49.216;8.650;2023-02-01T05:38:32;2.40;;;2.20;;
7475;SDS011;3779;49.216;8.650;2023-02-01T05:42:22;2.30;;;2.10;;
7475;SDS011;3779;49.216;8.650;2023-02-01T05:46:15;2.20;;;1.97;;
7475;SDS011;3779;49.216;8.650;2023-02-01T05:57:54;4.07;;;2.17;;
7475;SDS011;3779;49.216;8.650;2023-02-01T06:35:02;2.97;;;2.53;;
7475;SDS011;3779;49.216;8.650;2023-02-01T06:37:49;3.13;;;2.47;;
7475;SDS011;3779;49.216;8.650;2023-02-01T06:41:00;2.80;;;2.50;;
7475;SDS011;3779;49.216;8.650;2023-02-01T06:44:37;3.03;;;2.50;;
7475;SDS011;3779;49.216;8.650;2023-02-01T06:47:58;3.00;;;2.20;;
7475;SDS011;3779;49.216;8.650;2023-02-01T07:11:40;4.67;;;2.60;;
7475;SDS011;3779;49.216;8.650;2023-02-01T07:17:27;4.07;;;2.80;;
7475;SDS011;3779;49.216;8.650;2023-02-01T07:20:03;3.80;;;2.70;;
7475;SDS011;3779;49.216;8.650;2023-02-01T07:22:55;4.27;;;2.20;;
7475;SDS011;3779;49.216;8.650;2023-02-01T07:25:44;3.53;;;2.40;;
7475;SDS011;3779;49.216;8.650;2023-02-01T07:28:31;3.13;;;2.63;;
7475;SDS011;3779;49.216;8.650;2023-02-01T07:31:20;2.83;;;2.30;;
7475;SDS011;3779;49.216;8.650;2023-02-01T07:34:07;3.20;;;2.70;;
7475;SDS011;3779;49.216;8.650;2023-02-01T07:37:01;5.03;;;2.80;;
7475;SDS011;3779;49.216;8.650;2023-02-01T07:39:47;5.10;;;2.93;;
7475;SDS011;3779;49.216;8.650;2023-02-01T07:42:33;5.10;;;3.03;;
7475;SDS011;3779;49.216;8.650;2023-02-01T07:45:20;3.53;;;2.97;;
7475;SDS011;3779;49.216;8.650;2023-02-01T07:51:04;4.03;;;2.70;;
7475;SDS011;3779;49.216;8.650;2023-02-01T07:54:01;4.47;;;2.70;;
7475;SDS011;3779;49.216;8.650;2023-02-01T07:56:48;3.97;;;2.83;;
7475;SDS011;3779;49.216;8.650;2023-02-01T07:59:39;4.00;;;2.83;;
7475;SDS011;3779;49.216;8.650;2023-02-01T08:02:46;4.00;;;2.40;;
7475;SDS011;3779;49.216;8.650;2023-02-01T08:05:53;4.33;;;3.17;;
7475;SDS011;3779;49.216;8.650;2023-02-01T08:08:40;5.50;;;3.47;;
7475;SDS011;3779;49.216;8.650;2023-02-01T08:11:28;5.43;;;3.10;;
7475;SDS011;3779;49.216;8.650;2023-02-01T08:14:14;5.50;;;3.30;;
7475;SDS011;3779;49.216;8.650;2023-02-01T08:17:00;4.57;;;2.67;;
7475;SDS011;3779;49.216;8.650;2023-02-01T08:19:46;3.57;;;2.70;;
7475;SDS011;3779;49.216;8.650;2023-02-01T08:22:32;4.57;;;3.00;;
7475;SDS011;3779;49.216;8.650;2023-02-01T08:25:18;5.43;;;3.07;;
7475;SDS011;3779;49.216;8.650;2023-02-01T08:28:05;6.13;;;2.80;;
7475;SDS011;3779;49.216;8.650;2023-02-01T11:28:56;7.27;;;2.70;;
7475;SDS011;3779;49.216;8.650;2023-02-01T11:31:48;8.27;;;3.07;;
7475;SDS011;3779;49.216;8.650;2023-02-01T11:37:59;7.43;;;2.67;;
7475;SDS011;3779;49.216;8.650;2023-02-01T11:40:47;8.57;;;3.23;;
7475;SDS011;3779;49.216;8.650;2023-02-01T11:44:15;6.90;;;3.07;;
7475;SDS011;3779;49.216;8.650;2023-02-01T11:47:20;7.23;;;2.80;;
7475;SDS011;3779;49.216;8.650;2023-02-01T11:59:45;6.90;;;2.53;;
7475;SDS011;3779;49.216;8.650;2023-02-01T12:10:57;7.93;;;3.20;;
7475;SDS011;3779;49.216;8.650;2023-02-01T12:20:31;7.27;;;3.00;;
7475;SDS011;3779;49.216;8.650;2023-02-01T12:26:56;8.23;;;3.50;;
7475;SDS011;3779;49.216;8.650;2023-02-01T12:30:17;8.37;;;2.77;;
7475;SDS011;3779;49.216;8.650;2023-02-01T12:33:37;8.97;;;2.80;;
7475;SDS011;3779;49.216;8.650;2023-02-01T12:37:09;5.33;;;2.60;;
7475;SDS011;3779;49.216;8.650;2023-02-01T12:40:32;6.00;;;1.90;;
7475;SDS011;3779;49.216;8.650;2023-02-01T12:43:45;9.10;;;2.87;;
7475;SDS011;3779;49.216;8.650;2023-02-01T12:46:57;8.13;;;2.80;;
7475;SDS011;3779;49.216;8.650;2023-02-01T12:49:50;6.23;;;2.77;;
7475;SDS011;3779;49.216;8.650;2023-02-01T12:52:49;5.27;;;2.30;;
7475;SDS011;3779;49.216;8.650;2023-02-01T12:55:44;2.90;;;1.63;;
7475;SDS011;3779;49.216;8.650;2023-02-01T13:01:39;6.57;;;2.17;;
7475;SDS011;3779;49.216;8.650;2023-02-01T13:07:51;6.77;;;2.40;;
7475;SDS011;3779;49.216;8.650;2023-02-01T13:10:45;4.73;;;2.40;;
7475;SDS011;3779;49.216;8.650;2023-02-01T13:13:44;5.70;;;2.33;;
7475;SDS011;3779;49.216;8.650;2023-02-01T13:16:39;9.80;;;3.00;;
7475;SDS011;3779;49.216;8.650;2023-02-01T13:19:39;3.57;;;1.80;;
7475;SDS011;3779;49.216;8.650;2023-02-01T13:22:39;7.87;;;2.50;;
7475;SDS011;3779;49.216;8.650;2023-02-01T13:37:28;5.73;;;2.53;;
7475;SDS011;3779;49.216;8.650;2023-02-01T13:40:44;6.33;;;2.73;;
7475;SDS011;3779;49.216;8.650;2023-02-01T13:43:34;6.37;;;2.60;;
7475;SDS011;3779;49.216;8.650;2023-02-01T13:46:24;8.23;;;2.93;;
7475;SDS011;3779;49.216;8.650;2023-02-01T13:49:20;8.70;;;3.13;;
7475;SDS011;3779;49.216;8.650;2023-02-01T13:52:21;7.03;;;2.77;;
7475;SDS011;3779;49.216;8.650;2023-02-01T13:55:22;6.80;;;2.63;;
7475;SDS011;3779;49.216;8.650;2023-02-01T14:04:44;4.70;;;1.90;;
7475;SDS011;3779;49.216;8.650;2023-02-01T14:07:33;7.72;;;2.92;;
7475;SDS011;3779;49.216;8.650;2023-02-01T14:13:31;6.20;;;2.37;;
7475;SDS011;3779;49.216;8.650;2023-02-01T14:16:20;6.60;;;2.33;;
7475;SDS011;3779;49.216;8.650;2023-02-01T14:19:20;8.43;;;3.13;;
7475;SDS011;3779;49.216;8.650;2023-02-01T14:25:16;5.97;;;2.23;;
7475;SDS011;3779;49.216;8.650;2023-02-01T14:28:09;5.53;;;2.33;;
7475;SDS011;3779;49.216;8.650;2023-02-01T14:30:57;6.63;;;3.40;;
7475;SDS011;3779;49.216;8.650;2023-02-01T14:33:44;4.90;;;2.17;;
7475;SDS011;3779;49.216;8.650;2023-02-01T14:39:50;6.23;;;2.23;;
7475;SDS011;3779;49.216;8.650;2023-02-01T14:42:58;6.73;;;2.53;;
7475;SDS011;3779;49.216;8.650;2023-02-01T14:45:47;4.57;;;1.30;;
7475;SDS011;3779;49.216;8.650;2023-02-01T14:51:22;6.70;;;2.30;;
7475;SDS011;3779;49.216;8.650;2023-02-01T14:54:11;7.87;;;2.63;;
7475;SDS011;3779;49.216;8.650;2023-02-01T14:56:59;3.17;;;1.53;;
7475;SDS011;3779;49.216;8.650;2023-02-01T14:59:46;8.53;;;2.90;;
7475;SDS011;3779;49.216;8.650;2023-02-01T15:02:33;8.23;;;2.70;;
7475;SDS011;3779;49.216;8.650;2023-02-01T15:05:23;6.70;;;2.57;;
7475;SDS011;3779;49.216;8.650;2023-02-01T15:08:16;6.33;;;2.90;;
7475;SDS011;3779;49.216;8.650;2023-02-01T15:11:11;5.60;;;2.53;;
7475;SDS011;3779;49.216;8.650;2023-02-01T15:14:00;7.93;;;3.23;;
7475;SDS011;3779;49.216;8.650;2023-02-01T15:16:46;5.90;;;2.13;;
7475;SDS011;3779;49.216;8.650;2023-02-01T15:19:38;8.40;;;2.77;;
7475;SDS011;3779;49.216;8.650;2023-02-01T15:22:25;9.47;;;2.77;;
7475;SDS011;3779;49.216;8.650;2023-02-01T15:25:18;8.53;;;2.80;;
7475;SDS011;3779;49.216;8.650;2023-02-01T15:28:13;5.40;;;2.80;;
7475;SDS011;3779;49.216;8.650;2023-02-01T15:31:04;6.87;;;2.73;;
7475;SDS011;3779;49.216;8.650;2023-02-01T15:33:56;7.23;;;2.67;;
7475;SDS011;3779;49.216;8.650;2023-02-01T15:36:43;4.67;;;2.60;;
7475;SDS011;3779;49.216;8.650;2023-02-01T15:39:29;8.83;;;2.87;;
7475;SDS011;3779;49.216;8.650;2023-02-01T15:42:16;6.40;;;2.90;;
7475;SDS011;3779;49.216;8.650;2023-02-01T15:45:13;4.40;;;2.00;;
7475;SDS011;3779;49.216;8.650;2023-02-01T15:48:11;6.57;;;2.63;;
7475;SDS011;3779;49.216;8.650;2023-02-01T15:51:05;6.20;;;2.50;;
7475;SDS011;3779;49.216;8.650;2023-02-01T15:53:53;5.83;;;2.73;;
7475;SDS011;3779;49.216;8.650;2023-02-01T15:56:41;7.00;;;2.30;;
7475;SDS011;3779;49.216;8.650;2023-02-01T15:59:32;6.40;;;2.40;;
7475;SDS011;3779;49.216;8.650;2023-02-01T16:02:26;7.80;;;2.77;;
7475;SDS011;3779;49.216;8.650;2023-02-01T16:05:39;6.17;;;2.60;;
7475;SDS011;3779;49.216;8.650;2023-02-01T16:08:28;6.57;;;2.87;;
7475;SDS011;3779;49.216;8.650;2023-02-01T16:11:21;6.43;;;2.73;;
7475;SDS011;3779;49.216;8.650;2023-02-01T16:14:12;7.03;;;2.77;;
7475;SDS011;3779;49.216;8.650;2023-02-01T16:16:58;5.40;;;2.23;;
7475;SDS011;3779;49.216;8.650;2023-02-01T16:19:45;5.70;;;2.40;;
7475;SDS011;3779;49.216;8.650;2023-02-01T16:22:30;4.67;;;2.30;;
7475;SDS011;3779;49.216;8.650;2023-02-01T16:25:16;6.40;;;2.90;;
7475;SDS011;3779;49.216;8.650;2023-02-01T16:28:02;5.07;;;2.37;;
7475;SDS011;3779;49.216;8.650;2023-02-01T16:30:50;9.43;;;2.97;;
7475;SDS011;3779;49.216;8.650;2023-02-01T16:33:36;8.10;;;3.17;;
7475;SDS011;3779;49.216;8.650;2023-02-01T16:36:22;6.13;;;2.30;;
7475;SDS011;3779;49.216;8.650;2023-02-01T16:39:09;4.07;;;2.27;;
7475;SDS011;3779;49.216;8.650;2023-02-01T16:41:56;6.63;;;2.20;;
7475;SDS011;3779;49.216;8.650;2023-02-01T16:44:42;5.50;;;2.33;;
7475;SDS011;3779;49.216;8.650;2023-02-01T16:47:28;7.30;;;2.70;;
7475;SDS011;3779;49.216;8.650;2023-02-01T16:50:15;8.30;;;2.57;;
7475;SDS011;3779;49.216;8.650;2023-02-01T16:53:03;6.13;;;2.73;;
7475;SDS011;3779;49.216;8.650;2023-02-01T16:55:49;9.10;;;2.70;;
7475;SDS011;3779;49.216;8.650;2023-02-01T16:58:35;7.43;;;2.80;;
7475;SDS011;3779;49.216;8.650;2023-02-01T17:01:21;7.97;;;2.60;;
7475;SDS011;3779;49.216;8.650;2023-02-01T17:04:09;6.37;;;2.13;;
7475;SDS011;3779;49.216;8.650;2023-02-01T17:06:56;7.43;;;2.57;;
7475;SDS011;3779;49.216;8.650;2023-02-01T17:09:43;6.43;;;2.87;;
7475;SDS011;3779;49.216;8.650;2023-02-01T17:12:30;6.17;;;2.50;;
7475;SDS011;3779;49.216;8.650;2023-02-01T17:15:17;7.17;;;3.27;;
7475;SDS011;3779;49.216;8.650;2023-02-01T17:18:02;8.20;;;3.57;;
7475;SDS011;3779;49.216;8.650;2023-02-01T17:20:48;9.07;;;4.30;;
7475;SDS011;3779;49.216;8.650;2023-02-01T17:23:55;7.63;;;3.23;;
7475;SDS011;3779;49.216;8.650;2023-02-01T17:26:44;8.50;;;3.30;;
7475;SDS011;3779;49.216;8.650;2023-02-01T17:29:30;6.80;;;3.20;;
7475;SDS011;3779;49.216;8.650;2023-02-01T17:32:20;8.47;;;3.27;;
7475;SDS011;3779;49.216;8.650;2023-02-01T17:35:15;9.20;;;3.10;;
7475;SDS011;3779;49.216;8.650;2023-02-01T17:38:07;8.50;;;3.13;;
7475;SDS011;3779;49.216;8.650;2023-02-01T17:40:56;7.80;;;2.77;;
7475;SDS011;3779;49.216;8.650;2023-02-01T17:43:42;5.33;;;2.70;;
7475;SDS011;3779;49.216;8.650;2023-02-01T17:46:28;9.13;;;3.00;;
7475;SDS011;3779;49.216;8.650;2023-02-01T17:49:18;7.27;;;2.50;;
7475;SDS011;3779;49.216;8.650;2023-02-01T17:52:05;8.70;;;3.07;;
7475;SDS011;3779;49.216;8.650;2023-02-01T17:54:53;6.93;;;2.90;;
7475;SDS011;3779;49.216;8.650;2023-02-01T17:57:39;6.57;;;2.27;;
7475;SDS011;3779;49.216;8.650;2023-02-01T18:00:25;7.60;;;2.67;;
7475;SDS011;3779;49.216;8.650;2023-02-01T18:03:22;6.17;;;2.63;;
7475;SDS011;3779;49.216;8.650;2023-02-01T18:06:13;5.93;;;3.13;;
7475;SDS011;3779;49.216;8.650;2023-02-01T18:09:01;6.30;;;3.00;;
7475;SDS011;3779;49.216;8.650;2023-02-01T18:11:48;5.07;;;2.53;;
7475;SDS011;3779;49.216;8.650;2023-02-01T18:14:34;7.17;;;2.80;;
7475;SDS011;3779;49.216;8.650;2023-02-01T18:17:21;7.03;;;3.03;;
7475;SDS011;3779;49.216;8.650;2023-02-01T18:20:16;5.97;;;2.47;;
7475;SDS011;3779;49.216;8.650;2023-02-01T18:23:19;7.23;;;2.83;;
7475;SDS011;3779;49.216;8.650;2023-02-01T18:26:11;7.70;;;2.33;;
7475;SDS011;3779;49.216;8.650;2023-02-01T18:28:58;6.40;;;2.73;;
7475;SDS011;3779;49.216;8.650;2023-02-01T18:31:45;7.43;;;2.93;;
7475;SDS011;3779;49.216;8.650;2023-02-01T18:34:34;8.90;;;2.80;;
7475;SDS011;3779;49.216;8.650;2023-02-01T18:37:21;6.80;;;2.70;;
7475;SDS011;3779;49.216;8.650;2023-02-01T18:40:11;7.30;;;2.27;;
7475;SDS011;3779;49.216;8.650;2023-02-01T18:43:00;7.90;;;2.33;;
7475;SDS011;3779;49.216;8.650;2023-02-01T18:45:46;8.57;;;2.83;;
7475;SDS011;3779;49.216;8.650;2023-02-01T18:48:32;7.57;;;2.47;;
7475;SDS011;3779;49.216;8.650;2023-02-01T18:51:18;6.50;;;2.37;;
7475;SDS011;3779;49.216;8.650;2023-02-01T18:54:05;7.03;;;2.70;;
7475;SDS011;3779;49.216;8.650;2023-02-01T18:56:53;7.00;;;2.90;;
7475;SDS011;3779;49.216;8.650;2023-02-01T18:59:39;8.60;;;2.90;;
7475;SDS011;3779;49.216;8.650;2023-02-01T19:02:25;8.40;;;2.63;;
7475;SDS011;3779;49.216;8.650;2023-02-01T19:05:12;7.60;;;2.97;;
7475;SDS011;3779;49.216;8.650;2023-02-01T19:07:58;8.57;;;3.20;;
7475;SDS011;3779;49.216;8.650;2023-02-01T19:10:44;6.63;;;2.90;;
7475;SDS011;3779;49.216;8.650;2023-02-01T19:13:30;8.13;;;2.33;;
7475;SDS011;3779;49.216;8.650;2023-02-01T19:16:16;7.97;;;2.93;;
7475;SDS011;3779;49.216;8.650;2023-02-01T19:19:04;9.43;;;3.07;;
7475;SDS011;3779;49.216;8.650;2023-02-01T19:21:49;7.10;;;2.40;;
7475;SDS011;3779;49.216;8.650;2023-02-01T19:24:38;8.57;;;3.00;;
7475;SDS011;3779;49.216;8.650;2023-02-01T19:27:24;8.20;;;2.80;;
7475;SDS011;3779;49.216;8.650;2023-02-01T19:30:10;7.30;;;2.53;;
7475;SDS011;3779;49.216;8.650;2023-02-01T19:32:56;8.07;;;3.07;;
7475;SDS011;3779;49.216;8.650;2023-02-01T19:35:42;6.47;;;2.83;;
7475;SDS011;3779;49.216;8.650;2023-02-01T19:38:28;7.07;;;2.77;;
7475;SDS011;3779;49.216;8.650;2023-02-01T19:41:14;5.57;;;2.50;;
7475;SDS011;3779;49.216;8.650;2023-02-01T19:44:00;5.03;;;2.57;;
7475;SDS011;3779;49.216;8.650;2023-02-01T19:46:48;8.37;;;3.20;;
7475;SDS011;3779;49.216;8.650;2023-02-01T19:49:34;7.20;;;2.53;;
7475;SDS011;3779;49.216;8.650;2023-02-01T19:52:21;6.07;;;2.40;;
7475;SDS011;3779;49.216;8.650;2023-02-01T19:55:06;6.67;;;3.00;;
7475;SDS011;3779;49.216;8.650;2023-02-01T19:57:52;9.40;;;2.80;;
7475;SDS011;3779;49.216;8.650;2023-02-01T20:00:38;7.80;;;3.33;;
7475;SDS011;3779;49.216;8.650;2023-02-01T20:03:24;8.40;;;3.20;;
7475;SDS011;3779;49.216;8.650;2023-02-01T20:06:11;7.57;;;2.93;;
7475;SDS011;3779;49.216;8.650;2023-02-01T20:08:57;9.43;;;3.60;;
7475;SDS011;3779;49.216;8.650;2023-02-01T20:11:43;8.93;;;3.20;;
7475;SDS011;3779;49.216;8.650;2023-02-01T20:14:30;12.50;;;3.53;;
7475;SDS011;3779;49.216;8.650;2023-02-01T20:17:16;8.77;;;3.27;;
7475;SDS011;3779;49.216;8.650;2023-02-01T20:20:03;7.43;;;3.13;;
7475;SDS011;3779;49.216;8.650;2023-02-01T20:22:50;7.87;;;2.90;;
7475;SDS011;3779;49.216;8.650;2023-02-01T20:25:37;8.97;;;3.13;;
7475;SDS011;3779;49.216;8.650;2023-02-01T20:28:23;7.43;;;2.90;;
7475;SDS011;3779;49.216;8.650;2023-02-01T20:31:09;9.07;;;2.80;;
7475;SDS011;3779;49.216;8.650;2023-02-01T20:33:55;7.17;;;3.00;;
7475;SDS011;3779;49.216;8.650;2023-02-01T20:36:43;8.93;;;3.10;;
7475;SDS011;3779;49.216;8.650;2023-02-01T20:39:30;6.80;;;2.67;;
7475;SDS011;3779;49.216;8.650;2023-02-01T20:42:16;11.30;;;3.00;;
7475;SDS011;3779;49.216;8.650;2023-02-01T20:45:03;8.47;;;3.37;;
7475;SDS011;3779;49.216;8.650;2023-02-01T20:47:49;9.97;;;2.77;;
7475;SDS011;3779;49.216;8.650;2023-02-01T20:50:37;9.17;;;3.33;;
7475;SDS011;3779;49.216;8.650;2023-02-01T20:53:23;7.07;;;2.90;;
7475;SDS011;3779;49.216;8.650;2023-02-01T20:56:11;6.95;;;2.75;;
7475;SDS011;3779;49.216;8.650;2023-02-01T20:58:57;6.90;;;2.60;;
7475;SDS011;3779;49.216;8.650;2023-02-01T21:01:47;6.13;;;2.97;;
7475;SDS011;3779;49.216;8.650;2023-02-01T21:04:37;7.57;;;2.63;;
7475;SDS011;3779;49.216;8.650;2023-02-01T21:07:23;10.25;;;3.35;;
7475;SDS011;3779;49.216;8.650;2023-02-01T21:10:09;7.10;;;2.60;;
7475;SDS011;3779;49.216;8.650;2023-02-01T21:12:55;10.37;;;3.00;;
7475;SDS011;3779;49.216;8.650;2023-02-01T21:15:42;7.53;;;2.80;;
7475;SDS011;3779;49.216;8.650;2023-02-01T21:18:28;8.80;;;2.67;;
7475;SDS011;3779;49.216;8.650;2023-02-01T21:21:14;8.67;;;2.93;;
7475;SDS011;3779;49.216;8.650;2023-02-01T21:24:00;8.77;;;2.70;;
7475;SDS011;3779;49.216;8.650;2023-02-01T21:26:47;5.73;;;2.30;;
7475;SDS011;3779;49.216;8.650;2023-02-01T21:29:33;7.70;;;2.63;;
7475;SDS011;3779;49.216;8.650;2023-02-01T21:32:19;8.60;;;3.60;;
7475;SDS011;3779;49.216;8.650;2023-02-01T21:35:05;8.17;;;2.97;;
7475;SDS011;3779;49.216;8.650;2023-02-01T21:37:51;8.47;;;3.20;;
7475;SDS011;3779;49.216;8.650;2023-02-01T21:40:37;6.67;;;2.63;;
7475;SDS011;3779;49.216;8.650;2023-02-01T21:43:22;7.23;;;2.93;;
7475;SDS011;3779;49.216;8.650;2023-02-01T21:46:08;8.53;;;3.20;;
7475;SDS011;3779;49.216;8.650;2023-02-01T21:48:54;8.30;;;3.03;;
7475;SDS011;3779;49.216;8.650;2023-02-01T21:51:40;8.60;;;2.80;;
7475;SDS011;3779;49.216;8.650;2023-02-01T21:54:27;11.00;;;3.30;;
7475;SDS011;3779;49.216;8.650;2023-02-01T21:57:13;7.30;;;2.70;;
7475;SDS011;3779;49.216;8.650;2023-02-01T21:59:59;8.30;;;2.70;;
7475;SDS011;3779;49.216;8.650;2023-02-01T22:02:45;6.17;;;3.37;;
7475;SDS011;3779;49.216;8.650;2023-02-01T22:05:31;6.87;;;2.33;;
7475;SDS011;3779;49.216;8.650;2023-02-01T22:08:17;7.90;;;3.37;;
7475;SDS011;3779;49.216;8.650;2023-02-01T22:11:03;6.17;;;2.07;;
7475;SDS011;3779;49.216;8.650;2023-02-01T22:13:49;7.47;;;2.90;;
7475;SDS011;3779;49.216;8.650;2023-02-01T22:16:35;10.10;;;3.20;;
7475;SDS011;3779;49.216;8.650;2023-02-01T22:19:21;8.73;;;3.33;;
7475;SDS011;3779;49.216;8.650;2023-02-01T22:22:07;8.80;;;2.70;;
7475;SDS011;3779;49.216;8.650;2023-02-01T22:24:55;7.70;;;3.13;;
7475;SDS011;3779;49.216;8.650;2023-02-01T22:27:41;7.50;;;2.80;;
7475;SDS011;3779;49.216;8.650;2023-02-01T22:30:27;7.73;;;2.70;;
7475;SDS011;3779;49.216;8.650;2023-02-01T22:33:13;8.30;;;2.77;;
7475;SDS011;3779;49.216;8.650;2023-02-01T22:35:59;7.20;;;3.00;;
7475;SDS011;3779;49.216;8.650;2023-02-01T22:38:46;8.83;;;2.97;;
7475;SDS011;3779;49.216;8.650;2023-02-01T22:41:33;8.90;;;2.63;;
7475;SDS011;3779;49.216;8.650;2023-02-01T22:44:19;8.07;;;2.63;;
7475;SDS011;3779;49.216;8.650;2023-02-01T22:47:04;8.37;;;2.93;;
7475;SDS011;3779;49.216;8.650;2023-02-01T22:49:50;9.00;;;3.37;;
7475;SDS011;3779;49.216;8.650;2023-02-01T22:52:36;6.83;;;2.57;;
7475;SDS011;3779;49.216;8.650;2023-02-01T22:55:22;9.47;;;3.57;;
7475;SDS011;3779;49.216;8.650;2023-02-01T22:58:08;8.37;;;3.20;;
7475;SDS011;3779;49.216;8.650;2023-02-01T23:00:53;7.90;;;2.67;;
7475;SDS011;3779;49.216;8.650;2023-02-01T23:03:39;8.40;;;2.83;;
7475;SDS011;3779;49.216;8.650;2023-02-01T23:06:26;11.40;;;2.83;;
7475;SDS011;3779;49.216;8.650;2023-02-01T23:09:14;6.00;;;2.87;;
7475;SDS011;3779;49.216;8.650;2023-02-01T23:12:01;9.97;;;2.90;;
7475;SDS011;3779;49.216;8.650;2023-02-01T23:14:47;7.23;;;2.63;;
7475;SDS011;3779;49.216;8.650;2023-02-01T23:17:52;7.57;;;2.77;;
7475;SDS011;3779;49.216;8.650;2023-02-01T23:20:38;10.77;;;2.83;;
7475;SDS011;3779;49.216;8.650;2023-02-01T23:23:24;8.90;;;3.10;;
7475;SDS011;3779;49.216;8.650;2023-02-01T23:26:11;8.17;;;2.70;;
7475;SDS011;3779;49.216;8.650;2023-02-01T23:28:57;7.87;;;2.67;;
7475;SDS011;3779;49.216;8.650;2023-02-01T23:31:43;6.30;;;2.07;;
7475;SDS011;3779;49.216;8.650;2023-02-01T23:34:29;6.50;;;2.83;;